map of MYD home
MYD - Airport
Location
City:  Malindi, Kenya
ICAO:HKML
IATA:MYD

Details
Type:Airport (Aerodrome, Airfield)
Latitude:313'45"S (-3.229305)
Longitude:4006'06"E (40.101667)
Datum:WGS 1984
Elevation:80 ft (24 m)
Variation:0.74W (WMM2015 magnetic declination)
0.01 annual change
Runways:unknown number
Longest:4600 ft (1402 m)

Time
Time Zone:UTC+3
Local Time:

Weather
METAR:HKML 171200Z 06018KT 9999 FEW027 31/25 Q1008

Related Locations
Nearby:
Farthest:NHV: 11603 mi / 18674 km
Nuku Hiva, Marquesas Islands, PF

Find:

   beyond  
but within

Other Information
Maps:
NOTAMs:
Links:
Sources:

  
  • flag of Kenya
  

Sectional Chart

Flight Planning
at skyvector.com

Satellite Image

Google Maps Satellite view

 

Copyright © 2004-2019 Karl L. Swartz. All rights reserved.
The Great Circle Mapper name and logo are trademarks of the Great Circle Mapper.
All other trademarks mentioned herein belong to their respective owners.
Please see credits for attibutions and further copyright information.

  Follow gcmap on Facebook Follow gcmap on Twitter Follow gcmap on Google+ GCmap on LinkedIn

hCard Microformat

Geo Microformat